createdAt,value
2023-02-21T00:00:51.540Z,8.00
2023-02-21T00:03:37.229Z,8.00
2023-02-21T00:06:22.795Z,8.00
2023-02-21T00:09:07.799Z,8.50
2023-02-21T00:11:53.094Z,7.75
2023-02-21T00:14:40.122Z,10.00
2023-02-21T00:17:25.439Z,9.00
2023-02-21T00:20:10.862Z,8.50
2023-02-21T00:22:56.052Z,8.00
2023-02-21T00:25:41.501Z,7.75
2023-02-21T00:28:26.991Z,8.00
2023-02-21T00:31:14.378Z,8.00
2023-02-21T00:33:59.668Z,7.00
2023-02-21T00:36:44.898Z,8.00
2023-02-21T00:39:30.148Z,7.50
2023-02-21T00:42:15.882Z,7.00
2023-02-21T00:45:01.015Z,7.25
2023-02-21T00:47:47.995Z,7.75
2023-02-21T00:50:33.475Z,8.00
2023-02-21T00:53:19.112Z,8.00
2023-02-21T00:56:04.339Z,7.00
2023-02-21T00:58:49.738Z,7.50
2023-02-21T01:01:35.392Z,7.50
2023-02-21T01:04:22.442Z,7.00
2023-02-21T01:07:08.974Z,8.00
2023-02-21T01:09:54.238Z,8.00
2023-02-21T01:12:39.718Z,7.00
2023-02-21T01:15:27.195Z,8.00
2023-02-21T01:18:12.640Z,6.50
2023-02-21T01:20:59.595Z,7.00
2023-02-21T01:23:44.933Z,7.00
2023-02-21T01:26:30.241Z,6.25
2023-02-21T01:29:15.505Z,7.00
2023-02-21T01:32:01.162Z,6.25
2023-02-21T01:34:46.203Z,7.00
2023-02-21T01:37:33.080Z,7.00
2023-02-21T01:40:18.459Z,6.75
2023-02-21T01:43:04.079Z,7.00
2023-02-21T01:46:10.394Z,7.00
2023-02-21T01:48:55.681Z,6.75
2023-02-21T01:51:42.650Z,6.00
2023-02-21T01:54:29.583Z,7.00
2023-02-21T01:57:15.051Z,6.00
2023-02-21T02:00:00.200Z,7.00
2023-02-21T02:02:48.909Z,7.00
2023-02-21T02:05:34.612Z,6.00
2023-02-21T02:08:19.834Z,7.00
2023-02-21T02:11:08.649Z,6.50
2023-02-21T02:13:45.900Z,6.00
2023-02-21T02:16:16.860Z,7.00
2023-02-21T02:18:54.859Z,6.00
2023-02-21T02:22:13.542Z,6.75
2023-02-21T02:25:07.656Z,6.00
2023-02-21T02:28:00.468Z,7.00
2023-02-21T02:31:15.948Z,6.75
2023-02-21T02:34:10.690Z,6.00
2023-02-21T02:36:40.945Z,6.00
2023-02-21T02:39:14.862Z,6.75
2023-02-21T02:41:48.083Z,6.00
2023-02-21T02:44:18.650Z,6.00
2023-02-21T02:46:46.901Z,7.00
2023-02-21T02:49:17.294Z,7.25
2023-02-21T02:51:46.891Z,7.25
2023-02-21T02:54:15.126Z,7.00
2023-02-21T02:56:43.024Z,7.00
2023-02-21T02:59:11.883Z,7.00
2023-02-21T03:02:00.293Z,6.00
2023-02-21T03:04:46.156Z,5.50
2023-02-21T03:07:18.982Z,6.75
2023-02-21T03:09:49.745Z,7.00
2023-02-21T03:12:19.542Z,5.50
2023-02-21T03:14:51.119Z,7.00
2023-02-21T03:17:19.358Z,6.00
2023-02-21T03:19:47.602Z,6.75
2023-02-21T03:22:17.475Z,7.00
2023-02-21T03:24:46.360Z,6.00
2023-02-21T03:27:14.290Z,6.75
2023-02-21T03:29:42.240Z,6.75
2023-02-21T03:32:12.778Z,7.00
2023-02-21T03:34:40.909Z,6.50
2023-02-21T03:37:09.169Z,7.75
2023-02-21T03:39:38.499Z,7.00
2023-02-21T03:42:06.985Z,5.00
2023-02-21T03:44:35.177Z,5.50
2023-02-21T03:47:03.140Z,6.75
2023-02-21T03:49:31.021Z,6.00
2023-02-21T03:51:58.904Z,7.25
2023-02-21T03:54:27.292Z,7.00
2023-02-21T03:56:56.544Z,7.25
2023-02-21T03:59:24.427Z,7.75
2023-02-21T04:01:52.356Z,6.25
2023-02-21T04:04:20.548Z,7.00
2023-02-21T04:06:48.481Z,6.75
2023-02-21T04:09:16.420Z,7.75
2023-02-21T04:11:44.728Z,6.25
2023-02-21T04:14:14.237Z,8.00
2023-02-21T04:16:42.569Z,8.00
2023-02-21T04:19:10.460Z,8.00
2023-02-21T04:21:38.356Z,8.25
2023-02-21T04:24:06.800Z,8.00
2023-02-21T04:26:35.027Z,9.00
2023-02-21T04:29:03.060Z,8.00
2023-02-21T04:31:33.039Z,8.75
2023-02-21T04:34:11.286Z,8.00
2023-02-21T04:36:40.167Z,8.00
2023-02-21T04:39:08.158Z,8.00
2023-02-21T04:41:36.036Z,7.00
2023-02-21T04:44:03.997Z,9.00
2023-02-21T04:46:33.281Z,9.00
2023-02-21T04:49:01.150Z,8.25
2023-02-21T04:51:29.087Z,8.00
2023-02-21T04:53:57.294Z,8.25
2023-02-21T04:56:27.435Z,9.00
2023-02-21T04:58:55.405Z,9.00
2023-02-21T05:01:23.461Z,9.75
2023-02-21T05:03:53.141Z,9.00
2023-02-21T05:06:21.112Z,9.00
2023-02-21T05:08:49.012Z,9.75
2023-02-21T05:11:17.329Z,10.00
2023-02-21T05:13:45.704Z,9.00
2023-02-21T05:16:13.649Z,9.00
2023-02-21T05:18:42.982Z,8.00
2023-02-21T05:21:12.357Z,10.00
2023-02-21T05:23:41.066Z,8.25
2023-02-21T05:26:10.244Z,10.75
2023-02-21T05:28:38.476Z,10.50
2023-02-21T05:31:06.672Z,9.50
2023-02-21T05:33:34.899Z,10.75
2023-02-21T05:36:03.223Z,11.00
2023-02-21T05:38:32.580Z,11.00
2023-02-21T05:41:00.875Z,9.50
2023-02-21T05:43:33.762Z,10.00
2023-02-21T05:46:01.746Z,11.00
2023-02-21T05:48:29.746Z,10.00
2023-02-21T05:50:57.656Z,11.00
2023-02-21T05:53:25.538Z,10.00
2023-02-21T05:55:54.840Z,11.00
2023-02-21T05:58:22.765Z,10.25
2023-02-21T06:00:52.270Z,11.50
2023-02-21T06:03:20.525Z,10.00
2023-02-21T06:05:48.482Z,11.00
2023-02-21T06:08:16.403Z,12.00
2023-02-21T06:10:44.297Z,10.00
2023-02-21T06:13:13.866Z,11.50
2023-02-21T06:15:41.748Z,11.00
2023-02-21T06:18:09.916Z,10.50
2023-02-21T06:20:37.825Z,12.00
2023-02-21T06:23:05.682Z,11.50
2023-02-21T06:25:33.622Z,10.25
2023-02-21T06:28:01.537Z,11.00
2023-02-21T06:30:30.869Z,10.75
2023-02-21T06:32:58.775Z,10.75
2023-02-21T06:35:26.950Z,12.00
2023-02-21T06:37:54.914Z,12.00
2023-02-21T06:40:22.804Z,10.75
2023-02-21T06:42:50.714Z,10.50
2023-02-21T06:45:18.971Z,10.00
2023-02-21T06:47:48.232Z,11.75
2023-02-21T06:50:16.928Z,10.50
2023-02-21T06:52:44.818Z,11.50
2023-02-21T06:55:12.988Z,10.50
2023-02-21T06:57:40.927Z,11.00
2023-02-21T07:00:11.657Z,11.00
2023-02-21T07:02:39.873Z,11.00
2023-02-21T07:05:09.755Z,10.75
2023-02-21T07:07:37.669Z,11.00
2023-02-21T07:10:06.466Z,10.00
2023-02-21T07:12:34.371Z,11.75
2023-02-21T07:15:02.565Z,10.50
2023-02-21T07:17:30.500Z,10.00
2023-02-21T07:19:58.404Z,10.00
2023-02-21T07:22:28.374Z,11.00
2023-02-21T07:24:56.685Z,11.00
2023-02-21T07:27:24.689Z,11.00
2023-02-21T07:29:52.625Z,10.00
2023-02-21T07:32:20.534Z,10.50
2023-02-21T07:34:48.740Z,8.75
2023-02-21T07:37:16.626Z,10.25
2023-02-21T07:39:45.923Z,11.25
2023-02-21T07:42:14.064Z,9.50
2023-02-21T07:44:42.215Z,10.00
2023-02-21T07:47:10.685Z,9.75
2023-02-21T07:49:39.715Z,10.00
2023-02-21T07:52:07.723Z,9.25
2023-02-21T07:54:36.255Z,9.25
2023-02-21T07:57:05.592Z,8.75
2023-02-21T07:59:33.480Z,10.00
2023-02-21T08:02:01.586Z,10.50
2023-02-21T08:04:29.878Z,10.00
2023-02-21T08:07:00.461Z,10.00
2023-02-21T08:09:28.367Z,8.50
2023-02-21T08:11:56.286Z,9.00
2023-02-21T08:14:25.843Z,9.75
2023-02-21T08:16:53.744Z,8.00
2023-02-21T08:19:21.707Z,8.00
2023-02-21T08:21:49.825Z,9.00
2023-02-21T08:24:18.317Z,8.75
2023-02-21T08:26:46.608Z,9.25
2023-02-21T08:29:14.944Z,10.00
2023-02-21T08:31:44.904Z,9.00
2023-02-21T08:34:13.213Z,9.00
2023-02-21T08:36:43.182Z,9.00
2023-02-21T08:39:11.532Z,8.00
2023-02-21T08:41:39.608Z,9.00
2023-02-21T08:44:07.803Z,7.25
2023-02-21T08:46:35.998Z,8.00
2023-02-21T08:49:05.514Z,8.00
2023-02-21T08:51:33.920Z,8.50
2023-02-21T08:54:02.121Z,8.00
2023-02-21T08:56:30.807Z,8.50
2023-02-21T08:58:58.868Z,9.00
2023-02-21T09:01:32.949Z,8.75
2023-02-21T09:04:00.898Z,8.00
2023-02-21T09:06:30.236Z,8.00
2023-02-21T09:08:58.382Z,9.00
2023-02-21T09:11:26.287Z,7.75
2023-02-21T09:13:55.206Z,7.75
2023-02-21T09:16:23.340Z,8.00
2023-02-21T09:18:56.835Z,7.00
2023-02-21T09:21:24.774Z,7.75
2023-02-21T09:23:55.656Z,8.25
2023-02-21T09:26:24.406Z,9.00
2023-02-21T09:28:52.508Z,8.50
2023-02-21T09:31:20.497Z,7.75
2023-02-21T09:33:48.730Z,8.00
2023-02-21T09:36:16.609Z,8.00
2023-02-21T09:38:44.507Z,7.50
2023-02-21T09:41:14.637Z,8.00
2023-02-21T09:43:45.641Z,7.00
2023-02-21T09:46:16.006Z,8.00
2023-02-21T09:48:43.939Z,7.75
2023-02-21T09:51:12.699Z,8.00
2023-02-21T09:53:42.551Z,8.00
2023-02-21T09:56:15.047Z,8.25
2023-02-21T09:58:43.883Z,7.25
2023-02-21T10:01:19.925Z,7.00
2023-02-21T10:03:49.474Z,6.25
2023-02-21T10:06:24.503Z,7.00
2023-02-21T10:08:55.249Z,8.25
2023-02-21T10:11:31.393Z,7.00
2023-02-21T10:14:04.119Z,7.75
2023-02-21T10:16:34.757Z,7.00
2023-02-21T10:19:06.176Z,5.25
2023-02-21T10:21:36.519Z,7.00
2023-02-21T10:24:07.130Z,7.00
2023-02-21T10:26:40.990Z,7.00
2023-02-21T10:29:11.573Z,6.00
2023-02-21T10:31:40.734Z,7.25
2023-02-21T10:34:16.413Z,7.00
2023-02-21T10:36:44.380Z,8.00
2023-02-21T10:39:14.988Z,8.00
2023-02-21T10:41:44.398Z,7.00
2023-02-21T10:44:14.502Z,7.00
2023-02-21T10:46:44.571Z,7.00
2023-02-21T10:49:22.327Z,7.00
2023-02-21T10:51:50.487Z,7.75
2023-02-21T10:54:20.719Z,8.00
2023-02-21T10:56:51.398Z,8.00
2023-02-21T10:59:23.399Z,5.50
2023-02-21T11:01:51.367Z,6.50
2023-02-21T11:04:31.922Z,6.00
2023-02-21T11:07:01.588Z,6.50
2023-02-21T11:09:37.834Z,7.00
2023-02-21T11:12:18.641Z,7.00
2023-02-21T11:14:47.127Z,6.50
2023-02-21T11:17:19.340Z,8.00
2023-02-21T11:19:52.232Z,7.00
2023-02-21T11:22:22.740Z,7.00
2023-02-21T11:24:59.771Z,5.50
2023-02-21T11:27:30.741Z,6.50
2023-02-21T11:29:58.675Z,6.50
2023-02-21T11:32:29.007Z,7.50
2023-02-21T11:35:04.868Z,7.00
2023-02-21T11:37:32.990Z,7.00
2023-02-21T11:40:02.035Z,7.00
2023-02-21T11:42:33.236Z,7.00
2023-02-21T11:45:21.977Z,7.00
2023-02-21T11:47:55.114Z,6.50
2023-02-21T11:50:25.747Z,6.00
2023-02-21T11:52:58.099Z,7.00
2023-02-21T11:55:26.736Z,7.00
2023-02-21T11:58:07.834Z,7.25
2023-02-21T12:00:42.196Z,8.00
2023-02-21T12:03:50.752Z,6.00
2023-02-21T12:06:22.468Z,7.00
2023-02-21T12:08:52.595Z,7.00
2023-02-21T12:11:45.285Z,7.75
2023-02-21T12:14:41.862Z,7.00
2023-02-21T12:17:16.738Z,5.25
2023-02-21T12:20:09.504Z,7.00
2023-02-21T12:22:53.718Z,7.75
2023-02-21T12:25:23.798Z,6.50
2023-02-21T12:27:55.945Z,6.75
2023-02-21T12:30:36.715Z,7.00
2023-02-21T12:33:11.746Z,6.75
2023-02-21T12:35:50.262Z,8.00
2023-02-21T12:38:23.136Z,7.00
2023-02-21T12:40:54.929Z,7.25
2023-02-21T12:43:29.490Z,8.00
2023-02-21T12:46:02.600Z,7.50
2023-02-21T12:48:32.708Z,7.00
2023-02-21T12:51:04.055Z,8.00
2023-02-21T12:53:34.633Z,7.00
2023-02-21T12:56:05.431Z,7.00
2023-02-21T12:58:34.741Z,6.25
2023-02-21T13:01:10.955Z,7.00
2023-02-21T13:03:43.626Z,7.25
2023-02-21T13:06:14.360Z,8.00
2023-02-21T13:08:48.249Z,7.00
2023-02-21T13:11:18.756Z,7.00
2023-02-21T13:13:46.976Z,8.00
2023-02-21T13:16:18.529Z,6.75
2023-02-21T13:18:48.219Z,8.00
2023-02-21T13:21:22.298Z,7.00
2023-02-21T13:23:58.176Z,7.75
2023-02-21T13:26:37.366Z,8.00
2023-02-21T13:29:05.402Z,7.00
2023-02-21T13:31:38.421Z,8.00
2023-02-21T13:34:08.675Z,7.75
2023-02-21T13:36:42.700Z,8.25
2023-02-21T13:39:13.929Z,6.25
2023-02-21T13:41:44.512Z,6.50
2023-02-21T13:44:14.025Z,7.75
2023-02-21T13:47:16.649Z,8.50
2023-02-21T13:49:51.050Z,7.00
2023-02-21T13:53:06.449Z,6.50
2023-02-21T13:55:35.974Z,7.75
2023-02-21T13:58:31.615Z,8.75
2023-02-21T14:01:15.537Z,8.75
2023-02-21T14:03:45.354Z,7.00
2023-02-21T14:06:36.767Z,7.50
2023-02-21T14:09:07.216Z,8.50
2023-02-21T14:11:38.099Z,8.00
2023-02-21T14:14:07.579Z,8.00
2023-02-21T14:16:36.616Z,9.00
2023-02-21T14:19:08.372Z,7.50
2023-02-21T14:21:38.746Z,8.00
2023-02-21T14:24:12.221Z,8.00
2023-02-21T14:26:45.969Z,8.75
2023-02-21T14:29:31.839Z,8.75
2023-02-21T14:32:35.079Z,8.00
2023-02-21T14:35:15.386Z,9.00
2023-02-21T14:37:45.417Z,8.00
2023-02-21T14:40:22.724Z,8.25
2023-02-21T14:42:56.010Z,8.00
2023-02-21T14:45:34.482Z,8.00
2023-02-21T14:48:38.980Z,8.00
2023-02-21T14:51:21.020Z,8.00
2023-02-21T14:53:58.380Z,8.00
2023-02-21T14:56:45.464Z,8.00
2023-02-21T14:59:24.085Z,8.50
2023-02-21T15:02:02.718Z,8.50
2023-02-21T15:04:36.318Z,8.50
2023-02-21T15:07:12.186Z,9.00
2023-02-21T15:09:40.116Z,8.75
2023-02-21T15:12:10.877Z,8.00
2023-02-21T15:14:41.682Z,9.00
2023-02-21T15:17:13.846Z,7.00
2023-02-21T15:19:41.767Z,8.00
2023-02-21T15:22:24.802Z,8.00
2023-02-21T15:25:15.308Z,8.50
2023-02-21T15:28:03.100Z,8.00
2023-02-21T15:30:36.684Z,9.00
2023-02-21T15:33:14.095Z,10.00
2023-02-21T15:35:45.014Z,9.50
2023-02-21T15:38:17.692Z,9.50
2023-02-21T15:40:45.583Z,9.00
2023-02-21T15:43:24.061Z,8.25
2023-02-21T15:45:52.028Z,8.25
2023-02-21T15:48:19.913Z,9.00
2023-02-21T15:50:48.185Z,8.00
2023-02-21T15:53:21.606Z,9.00
2023-02-21T15:55:49.942Z,9.25
2023-02-21T15:58:23.827Z,9.25
2023-02-21T16:01:06.980Z,9.00
2023-02-21T16:03:36.767Z,8.25
2023-02-21T16:06:22.812Z,10.00
2023-02-21T16:09:01.966Z,9.75
2023-02-21T16:11:43.752Z,10.00
2023-02-21T16:14:19.416Z,8.00
2023-02-21T16:16:47.737Z,8.50
2023-02-21T16:19:15.681Z,9.50
2023-02-21T16:21:43.614Z,9.00
2023-02-21T16:24:28.897Z,9.00
2023-02-21T16:27:04.503Z,8.00
2023-02-21T16:29:32.396Z,10.00
2023-02-21T16:32:00.325Z,10.00
2023-02-21T16:34:28.515Z,9.00
2023-02-21T16:37:02.731Z,9.50
2023-02-21T16:39:32.132Z,9.50
2023-02-21T16:42:00.062Z,9.25
2023-02-21T16:44:28.208Z,9.75
2023-02-21T16:46:56.130Z,8.50
2023-02-21T16:49:24.013Z,9.00
2023-02-21T16:51:51.892Z,8.75
2023-02-21T16:54:20.120Z,9.00
2023-02-21T16:56:50.451Z,9.00
2023-02-21T16:59:20.299Z,10.00
2023-02-21T17:01:48.499Z,9.00
2023-02-21T17:04:17.429Z,10.00
2023-02-21T17:06:46.031Z,10.00
2023-02-21T17:09:19.446Z,9.75
2023-02-21T17:11:47.365Z,8.50
2023-02-21T17:14:17.092Z,10.00
2023-02-21T17:16:45.604Z,9.25
2023-02-21T17:19:14.641Z,10.00
2023-02-21T17:21:42.978Z,10.00
2023-02-21T17:24:11.027Z,10.00
2023-02-21T17:26:39.046Z,10.50
2023-02-21T17:29:07.709Z,11.00
2023-02-21T17:31:37.058Z,9.50
2023-02-21T17:34:05.301Z,10.50
2023-02-21T17:36:33.239Z,9.00
2023-02-21T17:39:01.171Z,10.50
2023-02-21T17:41:29.121Z,9.25
2023-02-21T17:43:57.343Z,9.00
2023-02-21T17:46:25.269Z,9.25
2023-02-21T17:48:54.591Z,10.25
2023-02-21T17:51:23.703Z,9.50
2023-02-21T17:53:52.002Z,10.25
2023-02-21T17:56:20.668Z,10.50
2023-02-21T17:58:48.759Z,9.25
2023-02-21T18:01:18.675Z,10.50
2023-02-21T18:03:47.537Z,10.00
2023-02-21T18:06:16.831Z,9.75
2023-02-21T18:08:47.078Z,10.75
2023-02-21T18:11:16.276Z,9.50
2023-02-21T18:13:44.514Z,9.25
2023-02-21T18:16:12.424Z,9.75
2023-02-21T18:18:40.447Z,10.50
2023-02-21T18:21:08.465Z,9.75
2023-02-21T18:23:38.380Z,10.00
2023-02-21T18:26:06.366Z,11.00
2023-02-21T18:28:34.238Z,11.00
2023-02-21T18:31:02.266Z,10.25
2023-02-21T18:33:30.500Z,11.00
2023-02-21T18:35:58.871Z,10.00
2023-02-21T18:38:27.191Z,9.25
2023-02-21T18:41:00.364Z,10.00
2023-02-21T18:43:29.765Z,12.00
2023-02-21T18:45:58.308Z,11.00
2023-02-21T18:48:26.424Z,9.00
2023-02-21T18:50:54.405Z,9.75
2023-02-21T18:53:22.660Z,10.50
2023-02-21T18:55:50.576Z,11.00
2023-02-21T18:58:19.913Z,11.00
2023-02-21T19:00:49.596Z,11.75
2023-02-21T19:03:17.826Z,10.75
2023-02-21T19:05:45.798Z,10.00
2023-02-21T19:08:13.694Z,10.50
2023-02-21T19:10:41.620Z,10.50
2023-02-21T19:13:09.833Z,10.00
2023-02-21T19:15:39.121Z,10.00
2023-02-21T19:18:07.096Z,10.00
2023-02-21T19:20:35.085Z,9.00
2023-02-21T19:23:02.965Z,10.75
2023-02-21T19:25:31.137Z,9.00
2023-02-21T19:28:01.316Z,10.25
2023-02-21T19:30:29.848Z,9.00
2023-02-21T19:32:59.971Z,10.00
2023-02-21T19:35:28.211Z,10.00
2023-02-21T19:37:56.140Z,11.00
2023-02-21T19:40:24.397Z,10.00
2023-02-21T19:42:52.347Z,11.50
2023-02-21T19:45:20.868Z,10.50
2023-02-21T19:47:48.831Z,11.25
2023-02-21T19:50:18.285Z,10.00
2023-02-21T19:52:47.521Z,10.00
2023-02-21T19:55:15.825Z,11.00
2023-02-21T19:57:43.755Z,11.00
2023-02-21T20:00:12.836Z,10.75
2023-02-21T20:02:40.745Z,11.00
2023-02-21T20:05:09.571Z,9.50
2023-02-21T20:07:38.836Z,11.00
2023-02-21T20:10:07.571Z,11.00
2023-02-21T20:12:35.505Z,10.00
2023-02-21T20:15:03.754Z,12.00
2023-02-21T20:17:31.684Z,12.00
2023-02-21T20:19:59.628Z,12.00
2023-02-21T20:22:34.075Z,11.75
2023-02-21T20:25:03.502Z,11.25
2023-02-21T20:27:31.518Z,11.00
2023-02-21T20:29:59.513Z,10.00
2023-02-21T20:32:27.556Z,12.00
2023-02-21T20:34:56.805Z,11.25
2023-02-21T20:37:24.653Z,14.00
2023-02-21T20:39:52.617Z,11.00
2023-02-21T20:42:22.780Z,12.25
2023-02-21T20:44:51.053Z,13.00
2023-02-21T20:47:19.789Z,12.00
2023-02-21T20:49:47.828Z,12.50
2023-02-21T20:52:15.934Z,11.00
2023-02-21T20:54:45.358Z,11.50
2023-02-21T20:57:13.458Z,12.50
2023-02-21T20:59:42.784Z,11.25
2023-02-21T21:02:10.821Z,13.00
2023-02-21T21:04:39.824Z,13.25
2023-02-21T21:07:08.766Z,13.75
2023-02-21T21:09:37.698Z,12.25
2023-02-21T21:12:07.386Z,12.50
2023-02-21T21:14:37.405Z,13.25
2023-02-21T21:17:06.779Z,12.50
2023-02-21T21:19:34.956Z,13.25
2023-02-21T21:22:03.372Z,14.00
2023-02-21T21:24:32.086Z,12.75
2023-02-21T21:27:07.009Z,12.00
2023-02-21T21:29:36.455Z,12.75
2023-02-21T21:32:05.378Z,13.00
2023-02-21T21:34:38.775Z,13.00
2023-02-21T21:37:07.582Z,13.00
2023-02-21T21:39:37.467Z,14.50
2023-02-21T21:42:08.830Z,13.25
2023-02-21T21:44:37.529Z,14.00
2023-02-21T21:47:05.575Z,14.50
2023-02-21T21:49:37.031Z,13.50
2023-02-21T21:52:05.524Z,13.00
2023-02-21T21:54:36.087Z,14.50
2023-02-21T21:57:05.308Z,13.00
2023-02-21T21:59:33.547Z,12.50
2023-02-21T22:02:01.400Z,12.75
2023-02-21T22:04:29.624Z,12.75
2023-02-21T22:06:58.848Z,14.00
2023-02-21T22:09:26.770Z,13.00
2023-02-21T22:11:54.743Z,13.25
2023-02-21T22:14:23.270Z,13.00
2023-02-21T22:16:52.316Z,12.50
2023-02-21T22:19:20.579Z,14.00
2023-02-21T22:21:48.468Z,12.25
2023-02-21T22:24:20.810Z,12.25
2023-02-21T22:26:48.773Z,13.00
2023-02-21T22:29:17.244Z,14.00
2023-02-21T22:31:46.170Z,12.25
2023-02-21T22:34:22.914Z,13.50
2023-02-21T22:36:50.967Z,14.00
2023-02-21T22:39:20.257Z,13.00
2023-02-21T22:41:49.181Z,13.00
2023-02-21T22:44:17.512Z,12.50
2023-02-21T22:46:46.957Z,14.25
2023-02-21T22:49:16.694Z,12.25
2023-02-21T22:51:44.816Z,14.50
2023-02-21T22:54:14.403Z,12.75
2023-02-21T22:56:51.177Z,13.00
2023-02-21T22:59:19.695Z,13.00
2023-02-21T23:01:47.609Z,12.00
2023-02-21T23:04:25.905Z,13.00
2023-02-21T23:06:54.687Z,11.00
2023-02-21T23:09:23.636Z,13.25
2023-02-21T23:11:53.844Z,11.00
2023-02-21T23:14:22.999Z,12.00
2023-02-21T23:16:51.267Z,12.00
2023-02-21T23:19:19.181Z,12.00
2023-02-21T23:21:47.320Z,12.25
2023-02-21T23:24:15.921Z,12.00
2023-02-21T23:26:45.136Z,11.25
2023-02-21T23:29:14.692Z,12.75
2023-02-21T23:31:42.690Z,11.75
2023-02-21T23:34:11.983Z,12.00
2023-02-21T23:36:40.358Z,11.50
2023-02-21T23:39:09.118Z,10.50
2023-02-21T23:41:38.904Z,12.00
2023-02-21T23:44:10.785Z,11.00
2023-02-21T23:46:42.512Z,11.00
2023-02-21T23:49:11.741Z,10.00
2023-02-21T23:51:42.311Z,10.00
2023-02-21T23:54:10.591Z,11.75
2023-02-21T23:56:40.135Z,10.75
2023-02-21T23:59:08.237Z,11.00
